Preflight/Weather

The current temperature at Deer Valley airport is 28°C  or 82°F

Deer Valley Metar:

KDVT 270653Z AUTO 04005KT 10SM CLR 28/M02 A2983 RMK AO2 SLP075 T02781017 403780206

Terminal Area Forecast for Phoenix:

TAF KPHX 270520Z 2706/2812 25004KT P6SM SKC FM271000 10004KT P6SM SKC FM271900 27005KT P6SM SKC FM272200 27010G18KT P6SM SKC FM280500 27007KT P6SM SKC